Time;durP1;ratioP1;P1;durP2;ratioP2;P2;SDS_P1;SDS_P2;PMS_P1;PMS_P2;Temp;Humidity;BMP_temperature;BMP_pressure;BME280_temperature;BME280_humidity;BME280_pressure;Samples;Min_cycle;Max_cycle;Signal;HPM_P1;HPM_P2
2021/12/20 00:00:42;;;;;;;28.52;12.18;;;2.40;87.10;;;;;;5064315;28;20043;-73
2021/12/20 00:03:07;;;;;;;23.10;11.32;;;2.50;87.10;;;;;;5037135;28;20033;-72
2021/12/20 00:05:33;;;;;;;24.30;10.75;;;2.50;86.90;;;;;;5054998;28;20104;-73
2021/12/20 00:07:59;;;;;;;27.98;11.50;;;2.60;86.60;;;;;;5055103;28;20024;-72
2021/12/20 00:10:24;;;;;;;21.88;10.60;;;2.70;86.40;;;;;;5054758;28;20040;-72
2021/12/20 00:12:50;;;;;;;18.55;9.70;;;2.70;85.90;;;;;;5054947;28;20032;-72
2021/12/20 00:15:17;;;;;;;18.67;9.40;;;2.80;85.50;;;;;;5054825;28;20032;-72
2021/12/20 00:17:44;;;;;;;24.33;11.45;;;2.80;85.30;;;;;;5054875;28;20021;-72
2021/12/20 00:20:10;;;;;;;19.05;9.80;;;2.80;85.80;;;;;;5054677;28;20491;-72
2021/12/20 00:22:36;;;;;;;19.30;9.48;;;2.90;84.70;;;;;;5054581;28;20037;-73
2021/12/20 00:25:03;;;;;;;25.05;11.15;;;2.80;84.50;;;;;;5054772;28;20028;-72
2021/12/20 00:27:29;;;;;;;23.42;11.05;;;2.80;84.60;;;;;;5054491;28;20039;-72
2021/12/20 00:29:54;;;;;;;25.23;11.30;;;2.80;84.80;;;;;;5054391;28;20025;-72
2021/12/20 00:32:20;;;;;;;22.17;11.00;;;2.80;85.10;;;;;;5054342;28;20029;-72
2021/12/20 00:34:46;;;;;;;24.42;10.98;;;2.60;85.00;;;;;;5054552;28;20064;-72
2021/12/20 00:42:41;;;;;;;22.40;10.47;;;2.70;85.60;;;;;;5054133;28;20087;-72
2021/12/20 00:45:09;;;;;;;24.00;11.35;;;2.70;85.50;;;;;;5054305;28;20435;-72
2021/12/20 00:47:35;;;;;;;24.63;11.52;;;2.80;85.40;;;;;;5054238;28;20037;-72
2021/12/20 00:50:00;;;;;;;20.65;10.40;;;2.80;85.20;;;;;;5054147;28;20021;-72
2021/12/20 00:52:26;;;;;;;20.52;10.50;;;2.80;85.00;;;;;;5054123;28;20102;-72
2021/12/20 00:54:52;;;;;;;21.40;10.57;;;2.70;85.00;;;;;;5054177;28;20017;-72
2021/12/20 00:57:17;;;;;;;23.80;10.98;;;2.70;85.20;;;;;;5054172;28;20040;-72
2021/12/20 00:59:43;;;;;;;22.30;11.35;;;2.70;85.30;;;;;;5054239;28;20025;-72
2021/12/20 01:02:09;;;;;;;23.88;11.75;;;2.80;85.30;;;;;;5054019;28;20040;-72
2021/12/20 01:04:34;;;;;;;23.60;10.88;;;2.80;85.20;;;;;;5053873;28;20036;-72
2021/12/20 01:07:00;;;;;;;24.65;12.20;;;2.80;85.20;;;;;;5053848;28;20048;-73
2021/12/20 01:09:25;;;;;;;26.75;12.52;;;2.90;85.30;;;;;;5053605;28;20464;-73
2021/12/20 01:11:53;;;;;;;24.83;11.73;;;2.90;85.20;;;;;;5053937;28;20445;-72
2021/12/20 01:14:25;;;;;;;30.75;13.18;;;2.90;85.10;;;;;;5053798;28;20025;-72
2021/12/20 01:16:51;;;;;;;20.58;10.73;;;2.90;84.90;;;;;;5054027;28;20104;-72
2021/12/20 01:19:17;;;;;;;23.73;11.60;;;2.90;85.00;;;;;;5053675;28;20111;-72
2021/12/20 01:21:42;;;;;;;26.77;11.77;;;2.90;84.80;;;;;;5053390;28;20492;-72
2021/12/20 01:24:08;;;;;;;24.48;11.38;;;2.80;84.60;;;;;;5053674;28;20029;-72
2021/12/20 01:26:34;;;;;;;23.80;10.85;;;2.80;84.60;;;;;;5035687;28;20097;-73
2021/12/20 01:29:00;;;;;;;22.65;11.18;;;2.80;84.80;;;;;;5053496;28;20107;-73
2021/12/20 01:31:25;;;;;;;24.92;12.35;;;2.90;85.00;;;;;;5053468;28;20056;-73
2021/12/20 01:33:51;;;;;;;22.10;11.02;;;2.90;84.90;;;;;;5053404;28;20083;-73
2021/12/20 01:36:17;;;;;;;24.02;11.82;;;2.90;84.90;;;;;;5053407;28;20029;-72
2021/12/20 01:38:42;;;;;;;27.23;12.70;;;2.90;85.00;;;;;;5053405;28;20033;-72
2021/12/20 01:41:09;;;;;;;30.38;13.40;;;2.90;85.00;;;;;;5053322;28;20075;-72
2021/12/20 01:43:36;;;;;;;27.77;13.75;;;2.90;84.90;;;;;;5035272;28;20040;-72
2021/12/20 01:46:02;;;;;;;31.90;13.30;;;2.90;84.70;;;;;;5053258;28;20028;-73
2021/12/20 01:48:29;;;;;;;31.15;14.35;;;2.90;84.70;;;;;;5052949;28;20362;-73
2021/12/20 01:53:41;;;;;;;30.27;13.43;;;2.90;84.80;;;;;;5022074;28;20041;-72
2021/12/20 01:56:08;;;;;;;25.38;12.63;;;2.90;84.90;;;;;;5053273;28;20520;-73
2021/12/20 01:58:34;;;;;;;30.02;13.18;;;2.90;84.90;;;;;;5052785;28;20035;-72
2021/12/20 02:03:39;;;;;;;25.92;12.07;;;2.90;85.00;;;;;;5052996;28;20064;-73
2021/12/20 02:06:16;;;;;;;21.65;11.93;;;2.90;85.10;;;;;;5052980;28;20385;-72
2021/12/20 02:08:42;;;;;;;24.35;11.90;;;3.00;85.00;;;;;;5052933;28;20036;-72
2021/12/20 02:11:09;;;;;;;28.88;12.32;;;3.00;84.80;;;;;;5052818;28;20079;-72
2021/12/20 02:13:37;;;;;;;24.80;11.65;;;3.00;84.50;;;;;;5052749;28;20033;-72
2021/12/20 02:16:03;;;;;;;20.80;11.35;;;3.00;84.70;;;;;;5052794;28;20025;-72
2021/12/20 02:18:29;;;;;;;24.52;12.40;;;2.90;84.70;;;;;;5052732;28;20024;-72
2021/12/20 02:20:56;;;;;;;22.98;11.02;;;2.90;84.80;;;;;;5052648;28;20025;-72
2021/12/20 02:23:21;;;;;;;24.13;11.73;;;2.90;85.00;;;;;;5052672;28;20033;-72
2021/12/20 02:25:47;;;;;;;23.33;11.35;;;2.90;85.00;;;;;;5034794;28;20017;-71
2021/12/20 02:28:15;;;;;;;17.98;9.93;;;2.90;84.90;;;;;;5052758;28;20025;-72
2021/12/20 02:36:54;;;;;;;19.35;10.23;;;2.80;84.90;;;;;;5068022;28;20021;-71
2021/12/20 02:38:49;;;;;;;15.73;8.65;;;2.80;85.40;;;;;;5052557;28;20028;-71
2021/12/20 02:41:17;;;;;;;15.38;8.23;;;2.80;85.30;;;;;;5056284;28;20032;-71
2021/12/20 02:43:55;;;;;;;15.90;8.75;;;2.90;85.30;;;;;;5038475;28;20036;-71
2021/12/20 02:48:56;;;;;;;17.88;9.07;;;2.80;85.50;;;;;;5056646;28;20115;-71
2021/12/20 02:51:26;;;;;;;17.48;9.27;;;2.80;85.70;;;;;;5056080;28;20470;-71
2021/12/20 02:53:53;;;;;;;15.35;8.73;;;2.90;85.80;;;;;;5056437;28;20397;-71
2021/12/20 02:56:20;;;;;;;14.88;8.25;;;2.90;85.80;;;;;;5056341;28;20021;-71
2021/12/20 02:58:45;;;;;;;16.75;9.15;;;3.00;85.60;;;;;;5056376;28;20028;-76
2021/12/20 03:01:11;;;;;;;17.08;9.70;;;3.00;85.40;;;;;;5056229;28;20466;-75
2021/12/20 03:03:37;;;;;;;16.98;9.02;;;3.00;85.20;;;;;;5056249;28;20052;-76
2021/12/20 03:06:12;;;;;;;17.83;9.18;;;3.00;85.20;;;;;;5056156;28;20454;-75
2021/12/20 03:08:39;;;;;;;18.45;9.95;;;3.00;85.30;;;;;;5056151;28;20044;-74
2021/12/20 03:11:05;;;;;;;15.55;8.52;;;3.00;85.10;;;;;;5056139;28;20051;-74
2021/12/20 03:13:31;;;;;;;17.60;9.27;;;3.00;85.00;;;;;;5056216;28;20502;-75
2021/12/20 03:15:57;;;;;;;17.77;9.50;;;3.00;85.00;;;;;;5056103;28;20029;-76
2021/12/20 03:18:22;;;;;;;15.50;9.43;;;2.90;85.00;;;;;;5056130;28;20393;-75
2021/12/20 03:20:48;;;;;;;16.85;9.43;;;2.90;85.00;;;;;;5038121;28;20457;-75
2021/12/20 03:23:13;;;;;;;17.30;9.13;;;2.90;85.20;;;;;;5056031;28;20392;-76
2021/12/20 03:25:39;;;;;;;17.38;9.25;;;3.00;85.30;;;;;;5038169;28;20079;-75
2021/12/20 03:28:04;;;;;;;14.90;9.18;;;3.00;85.20;;;;;;5056174;28;20033;-75
2021/12/20 03:30:30;;;;;;;16.20;9.02;;;3.00;85.10;;;;;;5038034;28;20025;-75
2021/12/20 03:32:55;;;;;;;16.85;9.63;;;3.10;85.10;;;;;;5055725;28;20037;-76
2021/12/20 03:35:21;;;;;;;17.67;9.80;;;3.10;85.10;;;;;;5054582;28;20059;-74
2021/12/20 03:37:46;;;;;;;16.48;9.25;;;3.10;84.80;;;;;;5054610;28;20060;-75
2021/12/20 03:40:12;;;;;;;18.77;9.50;;;3.10;84.70;;;;;;5054614;28;20063;-73
2021/12/20 03:42:42;;;;;;;12.38;8.10;;;3.10;84.80;;;;;;5054294;28;20046;-72
2021/12/20 03:45:08;;;;;;;16.77;9.60;;;3.10;84.70;;;;;;5054334;28;20017;-74
2021/12/20 03:47:34;;;;;;;15.32;8.88;;;3.10;84.70;;;;;;5054300;28;20358;-73
2021/12/20 03:49:59;;;;;;;17.88;9.63;;;3.10;84.80;;;;;;5054028;28;20031;-72
2021/12/20 03:52:25;;;;;;;15.98;9.07;;;3.10;84.90;;;;;;5054253;28;20071;-72
2021/12/20 03:54:51;;;;;;;15.93;9.20;;;3.10;84.90;;;;;;5054258;28;20029;-72
2021/12/20 03:57:16;;;;;;;14.98;9.20;;;3.10;85.10;;;;;;5054217;28;20484;-71
2021/12/20 03:59:42;;;;;;;15.18;8.95;;;3.10;85.00;;;;;;5054239;28;20021;-72
2021/12/20 04:02:08;;;;;;;17.30;10.02;;;3.20;84.80;;;;;;5054072;28;20040;-72
2021/12/20 04:04:34;;;;;;;17.75;9.13;;;3.20;84.80;;;;;;5053972;28;20029;-71
2021/12/20 04:06:59;;;;;;;16.85;9.77;;;3.10;84.80;;;;;;5054270;28;20021;-71
2021/12/20 04:09:25;;;;;;;16.10;9.38;;;3.00;84.80;;;;;;5054337;28;20043;-72
2021/12/20 04:11:50;;;;;;;17.33;9.57;;;3.00;84.80;;;;;;5057062;28;20025;-72
2021/12/20 04:14:16;;;;;;;17.20;9.23;;;3.00;85.10;;;;;;5036039;28;20028;-75
2021/12/20 04:16:41;;;;;;;13.95;8.38;;;3.00;85.30;;;;;;5053996;28;20036;-71
2021/12/20 04:19:07;;;;;;;13.93;8.65;;;3.10;85.60;;;;;;5054008;28;20025;-73
2021/12/20 04:21:33;;;;;;;14.95;9.48;;;3.10;85.50;;;;;;5053700;28;20142;-72
2021/12/20 04:23:58;;;;;;;14.13;8.77;;;3.10;85.40;;;;;;5053921;28;20025;-71
2021/12/20 04:26:24;;;;;;;14.75;8.68;;;3.10;85.20;;;;;;5053709;28;20540;-73
2021/12/20 04:28:50;;;;;;;13.70;8.05;;;3.10;85.10;;;;;;5035790;28;20028;-73
2021/12/20 04:31:15;;;;;;;13.45;8.60;;;3.10;85.10;;;;;;5053717;28;20063;-72
2021/12/20 04:33:41;;;;;;;15.25;9.30;;;3.20;85.10;;;;;;5017568;28;1045395;-72
2021/12/20 04:36:07;;;;;;;17.50;9.85;;;3.20;85.10;;;;;;5054629;28;20029;-75
2021/12/20 04:38:33;;;;;;;16.00;9.18;;;3.20;84.90;;;;;;5054627;28;20025;-76
2021/12/20 04:40:59;;;;;;;15.98;8.95;;;3.20;84.90;;;;;;5054497;28;20028;-76
2021/12/20 04:43:24;;;;;;;17.90;9.68;;;3.10;84.90;;;;;;5054436;28;20477;-76
2021/12/20 04:45:51;;;;;;;18.40;10.38;;;3.20;85.00;;;;;;5054398;28;20032;-76
2021/12/20 04:48:17;;;;;;;18.75;10.05;;;3.20;85.20;;;;;;5054232;28;20032;-76
2021/12/20 04:50:42;;;;;;;17.38;9.48;;;3.20;85.20;;;;;;5054391;28;20036;-76
2021/12/20 04:53:08;;;;;;;16.30;9.77;;;3.20;85.00;;;;;;5054403;28;20531;-76
2021/12/20 04:55:34;;;;;;;17.80;10.20;;;3.20;85.00;;;;;;5054151;28;20040;-74
2021/12/20 04:58:02;;;;;;;16.42;9.63;;;3.20;85.10;;;;;;5054117;28;20067;-73
2021/12/20 05:00:30;;;;;;;17.90;9.18;;;3.10;85.20;;;;;;5069480;28;20480;-74
2021/12/20 05:02:56;;;;;;;22.30;10.27;;;3.10;85.30;;;;;;5053106;28;20099;-73
2021/12/20 05:05:23;;;;;;;17.65;9.95;;;3.10;85.60;;;;;;5054000;28;20024;-74
2021/12/20 05:07:51;;;;;;;13.85;8.70;;;3.00;86.00;;;;;;5036361;28;20059;-76
2021/12/20 05:10:30;;;;;;;16.77;9.85;;;3.00;85.80;;;;;;5053915;28;20409;-74
2021/12/20 05:12:58;;;;;;;15.90;9.25;;;3.00;85.80;;;;;;5069331;28;20025;-74
2021/12/20 05:15:25;;;;;;;15.05;8.77;;;3.00;85.80;;;;;;5053855;28;20025;-73
2021/12/20 05:17:51;;;;;;;17.90;9.93;;;3.10;85.80;;;;;;5053692;28;20025;-75
2021/12/20 05:20:17;;;;;;;17.30;10.25;;;3.10;85.70;;;;;;5053692;28;20520;-75
2021/12/20 05:22:43;;;;;;;15.90;9.43;;;3.10;85.70;;;;;;5053589;28;20064;-75
2021/12/20 05:25:10;;;;;;;15.88;9.38;;;3.10;85.70;;;;;;5053671;28;20050;-73
2021/12/20 05:27:36;;;;;;;18.65;10.20;;;3.10;85.60;;;;;;5053444;28;20087;-75
2021/12/20 05:30:04;;;;;;;16.83;9.70;;;3.10;85.70;;;;;;5053539;28;20066;-74
2021/12/20 05:32:29;;;;;;;17.98;10.15;;;3.10;85.70;;;;;;5053031;28;20142;-75
2021/12/20 05:34:55;;;;;;;15.55;9.25;;;3.10;85.90;;;;;;5053535;28;20058;-74
2021/12/20 05:37:20;;;;;;;17.10;9.85;;;3.10;85.80;;;;;;5035449;28;20111;-76
2021/12/20 05:39:46;;;;;;;15.50;9.30;;;3.10;85.70;;;;;;5053528;28;20036;-74
2021/12/20 05:42:12;;;;;;;15.43;8.82;;;3.10;86.30;;;;;;5053281;28;20210;-75
2021/12/20 05:44:38;;;;;;;15.82;8.52;;;3.10;85.50;;;;;;5053420;28;20021;-75
2021/12/20 05:47:03;;;;;;;14.25;8.20;;;3.10;85.50;;;;;;5052868;28;20553;-76
2021/12/20 05:49:31;;;;;;;14.35;9.07;;;3.10;85.60;;;;;;5053260;28;20032;-74
2021/12/20 05:51:57;;;;;;;13.98;8.43;;;3.10;85.50;;;;;;5053306;28;20029;-75
2021/12/20 05:54:23;;;;;;;16.25;9.88;;;3.20;85.50;;;;;;5053198;28;20025;-73
2021/12/20 05:56:49;;;;;;;15.82;9.50;;;3.20;85.40;;;;;;5053064;28;20469;-76
2021/12/20 05:59:14;;;;;;;17.50;9.90;;;3.20;85.30;;;;;;5053025;28;20025;-75
2021/12/20 06:01:40;;;;;;;15.52;9.43;;;3.20;85.30;;;;;;5052969;28;20061;-74
2021/12/20 06:04:05;;;;;;;19.48;10.80;;;3.20;85.20;;;;;;5053068;28;20055;-75
2021/12/20 06:06:32;;;;;;;20.67;10.55;;;3.00;85.20;;;;;;5053024;28;20056;-73
2021/12/20 06:08:58;;;;;;;19.35;9.85;;;3.00;85.50;;;;;;5052993;28;20031;-73
2021/12/20 06:11:24;;;;;;;17.30;10.30;;;3.00;85.60;;;;;;5052882;28;20100;-73
2021/12/20 06:13:53;;;;;;;17.20;9.48;;;2.90;85.70;;;;;;5052609;28;20071;-73
2021/12/20 06:16:18;;;;;;;21.02;11.20;;;2.90;85.70;;;;;;5052541;28;20051;-75
2021/12/20 06:18:44;;;;;;;19.33;11.75;;;2.90;85.80;;;;;;5052403;28;20474;-75
2021/12/20 06:21:10;;;;;;;22.20;11.73;;;2.90;86.00;;;;;;5052414;28;20159;-75
2021/12/20 06:23:36;;;;;;;22.95;13.25;;;2.90;86.00;;;;;;5052258;28;20033;-73
2021/12/20 06:26:03;;;;;;;21.50;12.20;;;2.90;86.30;;;;;;5052125;28;20021;-73
2021/12/20 06:28:29;;;;;;;19.15;11.57;;;2.80;86.50;;;;;;5051885;28;20052;-74
2021/12/20 06:30:54;;;;;;;19.20;11.88;;;2.80;86.50;;;;;;5034125;28;20037;-73
2021/12/20 06:33:20;;;;;;;21.83;12.77;;;2.70;86.80;;;;;;5034062;28;20095;-74
2021/12/20 06:35:46;;;;;;;19.77;11.50;;;2.70;87.10;;;;;;5052355;28;20035;-73
2021/12/20 06:38:18;;;;;;;21.05;12.15;;;2.70;87.20;;;;;;5034182;28;20021;-73
2021/12/20 06:40:44;;;;;;;21.02;11.50;;;2.60;87.00;;;;;;5051895;28;20047;-74
2021/12/20 06:43:09;;;;;;;20.23;11.40;;;2.50;87.60;;;;;;5051991;28;20041;-74
2021/12/20 06:45:35;;;;;;;21.23;11.93;;;2.60;87.70;;;;;;5052115;28;20033;-73
2021/12/20 06:48:01;;;;;;;24.30;12.45;;;2.60;87.70;;;;;;5052104;28;20096;-75
2021/12/20 06:50:27;;;;;;;20.30;11.85;;;2.70;87.60;;;;;;5034287;28;20021;-75
2021/12/20 06:52:52;;;;;;;22.77;12.55;;;2.70;87.30;;;;;;5052338;28;20112;-73
2021/12/20 06:55:18;;;;;;;22.52;12.25;;;2.80;87.00;;;;;;5052615;28;20025;-75
2021/12/20 06:57:44;;;;;;;19.05;10.77;;;2.90;86.80;;;;;;5052290;28;20033;-73
2021/12/20 07:00:10;;;;;;;19.40;10.55;;;2.90;86.50;;;;;;5052153;28;20032;-73
2021/12/20 07:02:35;;;;;;;18.73;10.82;;;2.90;86.40;;;;;;5051888;28;20154;-73
2021/12/20 07:05:01;;;;;;;21.38;11.63;;;2.90;86.30;;;;;;5052079;28;20052;-73
2021/12/20 07:07:28;;;;;;;25.88;14.32;;;2.90;86.20;;;;;;5052082;28;20028;-73
2021/12/20 07:09:53;;;;;;;27.63;15.07;;;2.70;86.70;;;;;;5052189;28;20037;-74
2021/12/20 07:12:19;;;;;;;26.58;14.85;;;2.70;87.00;;;;;;5052176;28;20028;-74
2021/12/20 07:14:49;;;;;;;28.77;15.52;;;2.50;87.50;;;;;;5051977;28;20024;-74
2021/12/20 07:17:14;;;;;;;29.58;16.63;;;2.30;88.60;;;;;;5033906;28;20495;-75
2021/12/20 07:19:40;;;;;;;31.90;17.30;;;2.30;89.20;;;;;;5052001;28;20071;-74
2021/12/20 07:22:05;;;;;;;30.48;16.63;;;2.30;89.20;;;;;;5051835;28;20025;-74
2021/12/20 07:24:31;;;;;;;28.58;16.05;;;2.40;89.10;;;;;;5051791;28;20025;-75
2021/12/20 07:26:56;;;;;;;25.40;13.90;;;2.40;88.80;;;;;;5055210;28;20465;-74
2021/12/20 07:29:22;;;;;;;27.30;15.15;;;2.50;88.80;;;;;;5037573;28;20025;-74
2021/12/20 07:31:49;;;;;;;35.28;19.98;;;2.60;88.60;;;;;;5055627;28;20057;-75
2021/12/20 07:34:14;;;;;;;33.85;18.35;;;2.70;88.50;;;;;;5055551;28;20556;-73
2021/12/20 07:36:40;;;;;;;31.45;18.23;;;2.80;88.10;;;;;;5055818;28;20172;-73
2021/12/20 07:39:06;;;;;;;31.77;17.00;;;2.90;88.00;;;;;;5055401;28;20461;-74
2021/12/20 07:41:32;;;;;;;28.02;15.40;;;3.00;87.80;;;;;;5055440;28;20032;-73
2021/12/20 07:43:58;;;;;;;23.05;14.63;;;3.00;87.40;;;;;;5055420;28;20446;-75
2021/12/20 07:46:24;;;;;;;29.45;15.30;;;3.00;87.10;;;;;;5055304;28;20017;-77
2021/12/20 07:48:50;;;;;;;29.15;16.48;;;3.00;87.00;;;;;;5055341;28;20032;-74
2021/12/20 07:51:17;;;;;;;24.98;14.48;;;3.10;87.10;;;;;;5055114;28;20017;-74
2021/12/20 07:53:43;;;;;;;24.58;13.55;;;3.10;87.00;;;;;;5055108;28;20481;-73
2021/12/20 07:56:09;;;;;;;24.83;13.80;;;3.10;86.90;;;;;;5055236;28;20033;-75
2021/12/20 07:58:35;;;;;;;24.48;13.82;;;3.20;86.80;;;;;;5037281;28;20025;-73
2021/12/20 08:01:04;;;;;;;25.90;14.85;;;3.20;86.70;;;;;;5055169;28;20029;-72
2021/12/20 08:03:30;;;;;;;23.45;13.68;;;3.20;86.40;;;;;;5036851;28;20033;-74
2021/12/20 08:05:55;;;;;;;27.77;15.95;;;3.20;86.30;;;;;;5054804;28;20580;-71
2021/12/20 08:08:21;;;;;;;27.00;14.32;;;3.20;86.20;;;;;;5054875;28;20121;-72
2021/12/20 08:10:47;;;;;;;28.38;14.57;;;3.30;86.30;;;;;;5054960;28;20021;-76
2021/12/20 08:13:13;;;;;;;26.45;15.45;;;3.30;86.50;;;;;;5054272;28;20072;-74
2021/12/20 08:15:39;;;;;;;27.88;14.07;;;3.30;86.20;;;;;;5054384;28;20020;-72
2021/12/20 08:18:06;;;;;;;25.05;13.32;;;3.40;86.00;;;;;;5054460;28;20487;-77
2021/12/20 08:20:32;;;;;;;21.67;13.60;;;3.40;85.90;;;;;;5054651;28;20031;-74
2021/12/20 08:22:58;;;;;;;28.40;15.35;;;3.50;85.70;;;;;;5054420;28;20036;-72
2021/12/20 08:25:23;;;;;;;27.50;15.88;;;3.50;85.40;;;;;;5036759;28;20048;-72
2021/12/20 08:27:50;;;;;;;26.73;15.63;;;3.50;85.10;;;;;;5054318;28;20071;-75
2021/12/20 08:30:16;;;;;;;28.83;17.25;;;3.40;85.00;;;;;;5054476;28;20053;-73
2021/12/20 08:32:42;;;;;;;22.98;13.48;;;3.50;85.10;;;;;;5054217;28;20086;-72
2021/12/20 08:35:09;;;;;;;26.67;15.00;;;3.40;84.90;;;;;;5054551;28;20029;-72
2021/12/20 08:37:35;;;;;;;22.23;13.40;;;3.40;85.00;;;;;;5052778;28;20025;-72
2021/12/20 08:40:02;;;;;;;25.40;14.48;;;3.50;85.20;;;;;;5054317;28;20025;-73
2021/12/20 08:42:28;;;;;;;22.70;13.93;;;3.50;85.30;;;;;;5054161;28;20367;-72
2021/12/20 08:44:53;;;;;;;29.38;17.08;;;3.60;85.20;;;;;;5054296;28;20032;-75
2021/12/20 08:47:19;;;;;;;34.95;19.77;;;3.60;84.80;;;;;;5054215;28;20048;-71
2021/12/20 08:49:44;;;;;;;32.55;19.48;;;3.60;84.60;;;;;;5054230;28;20100;-73
2021/12/20 08:52:10;;;;;;;27.52;15.75;;;3.60;84.60;;;;;;5054274;28;20025;-73
2021/12/20 08:54:36;;;;;;;26.40;14.55;;;3.70;84.40;;;;;;5054006;28;20028;-72
2021/12/20 08:57:02;;;;;;;21.33;13.57;;;3.70;84.10;;;;;;5054121;28;20044;-72
2021/12/20 08:59:28;;;;;;;26.65;14.55;;;3.70;83.80;;;;;;5053787;28;20358;-72
2021/12/20 09:01:53;;;;;;;23.88;13.10;;;3.70;83.60;;;;;;5053861;28;20362;-73
2021/12/20 09:04:19;;;;;;;21.95;12.52;;;3.70;83.60;;;;;;5035791;28;20432;-74
2021/12/20 09:06:45;;;;;;;17.92;11.20;;;3.80;83.60;;;;;;5035976;28;20024;-74
2021/12/20 09:09:15;;;;;;;25.73;16.27;;;3.80;83.50;;;;;;5036129;28;20025;-73
2021/12/20 09:11:42;;;;;;;40.78;15.98;;;3.80;83.30;;;;;;5035822;28;20051;-76
2021/12/20 09:14:07;;;;;;;33.28;16.10;;;4.10;90.60;;;;;;5035480;28;20024;-81
2021/12/20 09:16:33;;;;;;;26.10;15.88;;;4.60;94.60;;;;;;5035697;28;20026;-81
2021/12/20 09:18:59;;;;;;;23.92;14.82;;;5.10;91.50;;;;;;5036034;28;20040;-78
2021/12/20 09:21:24;;;;;;;20.65;13.02;;;5.50;86.90;;;;;;5035987;28;20112;-77
2021/12/20 09:23:50;;;;;;;18.90;12.20;;;5.70;82.90;;;;;;5035817;28;20029;-78
2021/12/20 09:26:18;;;;;;;22.30;13.52;;;6.00;80.40;;;;;;5053394;28;20017;-77
2021/12/20 09:28:43;;;;;;;20.20;12.70;;;6.30;77.50;;;;;;5035593;28;20044;-77
2021/12/20 09:31:09;;;;;;;23.67;13.70;;;6.30;76.10;;;;;;5035267;28;20466;-77
2021/12/20 09:33:35;;;;;;;21.17;13.43;;;6.20;75.30;;;;;;5034729;28;20374;-78
2021/12/20 09:36:02;;;;;;;19.17;12.48;;;6.30;74.70;;;;;;5035141;28;20021;-77
2021/12/20 09:38:31;;;;;;;20.17;12.68;;;6.30;74.60;;;;;;5034893;28;20029;-79
2021/12/20 09:43:40;;;;;;;24.58;13.82;;;6.30;75.10;;;;;;5053140;28;20128;-78
2021/12/20 09:46:06;;;;;;;22.73;13.13;;;6.30;74.70;;;;;;5035112;28;20124;-82
2021/12/20 09:48:35;;;;;;;23.35;14.18;;;6.40;75.00;;;;;;5034664;28;20037;-79
2021/12/20 09:51:02;;;;;;;20.83;14.55;;;6.60;74.30;;;;;;5035172;28;20021;-82
2021/12/20 09:53:27;;;;;;;20.77;13.38;;;6.80;73.10;;;;;;5035233;28;20025;-78
2021/12/20 09:55:57;;;;;;;18.77;12.25;;;6.90;72.50;;;;;;5035650;28;20017;-77
2021/12/20 09:58:25;;;;;;;19.17;12.52;;;6.90;72.40;;;;;;5035534;28;20021;-74
2021/12/20 10:00:51;;;;;;;19.75;13.40;;;7.00;72.50;;;;;;5034946;28;20541;-73
2021/12/20 10:03:24;;;;;;;22.70;14.00;;;7.00;72.10;;;;;;5034307;28;20163;-73
2021/12/20 10:05:54;;;;;;;19.65;12.77;;;6.80;72.40;;;;;;5034867;28;20025;-74
2021/12/20 10:08:26;;;;;;;20.08;12.60;;;6.70;72.60;;;;;;5052613;28;20046;-74
2021/12/20 10:10:52;;;;;;;19.52;11.65;;;6.60;73.10;;;;;;5052462;28;20037;-75
2021/12/20 10:13:32;;;;;;;18.40;12.18;;;6.40;73.70;;;;;;5052793;28;20109;-72
2021/12/20 10:16:00;;;;;;;17.75;11.40;;;6.30;74.40;;;;;;5034949;28;20036;-74
2021/12/20 10:18:27;;;;;;;24.38;13.65;;;6.10;74.70;;;;;;5052652;28;20021;-73
2021/12/20 10:20:56;;;;;;;23.40;13.95;;;5.90;75.40;;;;;;5052295;28;20460;-73
2021/12/20 10:23:24;;;;;;;28.83;14.43;;;5.30;77.70;;;;;;5052442;28;20052;-74
2021/12/20 10:25:56;;;;;;;27.90;14.50;;;5.00;79.00;;;;;;5052417;28;20418;-73
2021/12/20 10:28:25;;;;;;;24.00;14.40;;;4.90;79.60;;;;;;5052568;28;20029;-75
2021/12/20 10:30:56;;;;;;;20.83;13.68;;;4.80;80.00;;;;;;5052544;28;20025;-73
2021/12/20 10:33:23;;;;;;;26.55;15.23;;;4.80;80.40;;;;;;5052173;28;20041;-73
2021/12/20 10:35:55;;;;;;;23.70;14.13;;;4.80;80.80;;;;;;5052322;28;20025;-73
2021/12/20 10:38:28;;;;;;;24.33;13.63;;;4.90;80.50;;;;;;5052165;28;20032;-73
2021/12/20 10:40:56;;;;;;;29.95;16.33;;;4.90;80.80;;;;;;5051833;28;20083;-73
2021/12/20 10:43:24;;;;;;;28.50;15.07;;;4.70;81.00;;;;;;5052113;28;20041;-72
2021/12/20 10:45:52;;;;;;;28.38;14.85;;;4.60;81.40;;;;;;5052132;28;20025;-73
2021/12/20 10:48:17;;;;;;;26.55;16.52;;;4.60;81.60;;;;;;5052049;28;20017;-72
2021/12/20 10:50:43;;;;;;;30.25;16.45;;;4.40;82.20;;;;;;5052223;28;20381;-73
2021/12/20 10:53:29;;;;;;;33.00;17.83;;;4.20;82.70;;;;;;5052312;28;20155;-73
2021/12/20 10:56:03;;;;;;;28.00;15.48;;;4.20;83.10;;;;;;5051680;28;20171;-73
2021/12/20 10:58:31;;;;;;;30.73;16.33;;;4.20;83.40;;;;;;5051778;28;20390;-73
2021/12/20 11:03:06;;;;;;;27.02;14.57;;;4.30;83.40;;;;;;5053248;28;20024;-73
2021/12/20 11:04:08;;;;;;;32.45;17.13;;;4.40;83.70;;;;;;5045827;28;20369;-73
2021/12/20 11:09:17;;;;;;;29.95;17.02;;;4.30;83.40;;;;;;5055739;28;20108;-75
2021/12/20 11:12:20;;;;;;;30.27;16.50;;;4.40;83.70;;;;;;5056021;28;20029;-73
2021/12/20 11:14:49;;;;;;;33.08;17.67;;;4.50;83.20;;;;;;5024235;28;20041;-76
2021/12/20 11:17:17;;;;;;;30.02;16.58;;;4.50;83.10;;;;;;5055710;28;20071;-76
2021/12/20 11:19:53;;;;;;;31.45;17.70;;;4.50;83.60;;;;;;5055241;28;20513;-76
2021/12/20 11:22:24;;;;;;;31.33;16.33;;;4.40;82.80;;;;;;5055416;28;20037;-75
2021/12/20 11:25:08;;;;;;;26.23;15.80;;;4.40;83.40;;;;;;5055491;28;20096;-72
2021/12/20 11:27:35;;;;;;;30.10;15.98;;;4.50;83.20;;;;;;5055460;28;20488;-73
2021/12/20 11:30:03;;;;;;;31.35;16.88;;;4.50;83.10;;;;;;5055537;28;20029;-73
2021/12/20 11:32:30;;;;;;;26.27;14.80;;;4.40;83.10;;;;;;5055222;28;20036;-77
2021/12/20 11:34:56;;;;;;;31.73;16.58;;;4.40;83.00;;;;;;5055513;28;20036;-76
2021/12/20 11:37:24;;;;;;;28.02;15.98;;;4.50;83.10;;;;;;5055040;28;20040;-75
2021/12/20 11:39:50;;;;;;;30.70;16.02;;;4.40;82.60;;;;;;5055330;28;20025;-73
2021/12/20 11:42:16;;;;;;;30.52;15.65;;;4.50;83.10;;;;;;5054963;28;20466;-76
2021/12/20 11:44:45;;;;;;;27.38;15.90;;;4.50;82.90;;;;;;5054868;28;20051;-75
2021/12/20 11:47:27;;;;;;;28.23;15.65;;;4.50;82.80;;;;;;5054676;28;20021;-76
2021/12/20 11:50:08;;;;;;;30.15;17.20;;;4.60;83.10;;;;;;5054346;28;20047;-75
2021/12/20 11:52:42;;;;;;;28.15;14.45;;;4.70;82.80;;;;;;5054396;28;20100;-72
2021/12/20 11:55:29;;;;;;;28.50;15.57;;;4.60;82.70;;;;;;5054178;28;20099;-74
2021/12/20 11:58:05;;;;;;;25.52;15.77;;;4.70;82.90;;;;;;5054388;28;20511;-73
2021/12/20 12:00:36;;;;;;;29.80;16.65;;;4.70;83.10;;;;;;5036725;28;20051;-75
2021/12/20 12:03:19;;;;;;;29.50;15.70;;;4.60;83.00;;;;;;5054220;28;20045;-74
2021/12/20 12:05:51;;;;;;;26.52;15.18;;;4.70;83.00;;;;;;5054695;28;20017;-75
2021/12/20 12:08:27;;;;;;;30.40;17.17;;;4.70;82.60;;;;;;5054720;28;20029;-75
2021/12/20 12:11:00;;;;;;;29.15;16.60;;;4.70;82.20;;;;;;5054163;28;20032;-74
2021/12/20 12:13:28;;;;;;;27.30;15.38;;;4.70;82.00;;;;;;5054393;28;20104;-75
2021/12/20 12:16:15;;;;;;;31.48;16.30;;;4.70;82.20;;;;;;5054496;28;20388;-74
2021/12/20 12:18:47;;;;;;;30.27;16.45;;;4.70;82.30;;;;;;5054332;28;20096;-75
2021/12/20 12:21:31;;;;;;;28.35;16.23;;;4.80;82.60;;;;;;5054414;28;20032;-73
2021/12/20 12:23:57;;;;;;;26.33;15.93;;;4.80;82.20;;;;;;5054451;28;20485;-72
2021/12/20 12:26:33;;;;;;;25.10;14.18;;;4.80;82.10;;;;;;5054148;28;20055;-75
2021/12/20 12:28:59;;;;;;;28.73;15.18;;;4.90;82.20;;;;;;5054279;28;20056;-74
2021/12/20 12:31:26;;;;;;;24.50;13.63;;;4.90;82.00;;;;;;5054121;28;20021;-75
2021/12/20 12:34:06;;;;;;;22.40;13.77;;;5.00;81.90;;;;;;5036184;28;20048;-74
2021/12/20 12:36:39;;;;;;;24.73;14.60;;;5.00;81.70;;;;;;5054002;28;20055;-75
2021/12/20 12:39:22;;;;;;;24.20;14.70;;;5.00;81.50;;;;;;5054535;28;20021;-74
2021/12/20 12:41:50;;;;;;;24.23;13.65;;;4.90;81.50;;;;;;5054165;28;20040;-75
2021/12/20 12:44:24;;;;;;;27.20;15.05;;;4.90;81.50;;;;;;5053924;28;20457;-74
2021/12/20 12:46:53;;;;;;;27.95;14.93;;;4.90;81.60;;;;;;5053955;28;20104;-73
2021/12/20 12:49:21;;;;;;;23.77;13.20;;;4.90;81.50;;;;;;5054001;28;20406;-74
2021/12/20 12:51:51;;;;;;;25.20;14.40;;;5.00;81.50;;;;;;5053931;28;20036;-75
2021/12/20 12:54:41;;;;;;;23.90;13.02;;;5.00;80.90;;;;;;5054188;28;20017;-74
2021/12/20 12:57:09;;;;;;;24.75;13.10;;;5.00;81.00;;;;;;5054151;28;20025;-73
2021/12/20 12:59:50;;;;;;;24.70;13.40;;;5.10;80.80;;;;;;5054120;28;20032;-74
2021/12/20 13:02:24;;;;;;;21.50;11.52;;;5.10;80.30;;;;;;5053942;28;20044;-74
2021/12/20 13:04:51;;;;;;;20.98;11.20;;;5.10;79.80;;;;;;5053791;28;20021;-73
2021/12/20 13:07:17;;;;;;;21.70;11.32;;;5.10;79.70;;;;;;5056672;28;20031;-73